Time;durP1;ratioP1;P1;durP2;ratioP2;P2;SDS_P1;SDS_P2;PMS_P1;PMS_P2;Temp;Humidity;BMP_temperature;BMP_pressure;BME280_temperature;BME280_humidity;BME280_pressure;Samples;Min_cycle;Max_cycle;Signal;HPM_P1;HPM_P2
2022/07/20 00:01:46;;;;;;;4.97;4.45;;;21.60;80.30;;;;;;5093992;28;20040;-60
2022/07/20 00:04:12;;;;;;;4.72;4.00;;;21.50;80.70;;;;;;5095232;28;20032;-57
2022/07/20 00:06:38;;;;;;;5.88;4.47;;;21.50;80.70;;;;;;5086593;28;20027;-60
2022/07/20 00:11:48;;;;;;;4.80;4.00;;;21.50;81.00;;;;;;5096612;28;20509;-60
2022/07/20 00:14:14;;;;;;;6.43;4.70;;;21.50;80.60;;;;;;5087282;28;20032;-61
2022/07/20 00:16:39;;;;;;;7.70;4.45;;;21.50;80.70;;;;;;5086704;28;20462;-61
2022/07/20 00:19:06;;;;;;;5.53;4.15;;;21.50;81.20;;;;;;5074549;28;20038;-60
2022/07/20 00:21:32;;;;;;;6.13;4.88;;;21.50;80.80;;;;;;5084179;28;20038;-58
2022/07/20 00:23:57;;;;;;;5.05;4.20;;;21.50;80.90;;;;;;5085331;28;20106;-60
2022/07/20 00:26:23;;;;;;;6.13;4.65;;;21.50;81.10;;;;;;5092789;28;20047;-60
2022/07/20 00:28:51;;;;;;;6.68;4.90;;;21.50;81.10;;;;;;5099819;28;20099;-61
2022/07/20 00:31:18;;;;;;;7.82;4.50;;;21.50;81.60;;;;;;5097358;28;20076;-60
2022/07/20 00:33:46;;;;;;;4.72;4.22;;;21.40;81.20;;;;;;5090847;28;20055;-60
2022/07/20 00:36:13;;;;;;;5.93;4.28;;;21.50;81.40;;;;;;5092864;28;20402;-60
2022/07/20 00:38:39;;;;;;;5.63;4.05;;;21.50;81.30;;;;;;5062621;28;20401;-60
2022/07/20 00:41:05;;;;;;;4.72;3.53;;;21.40;81.50;;;;;;5091821;28;20055;-61
2022/07/20 00:43:58;;;;;;;5.35;4.15;;;21.40;81.70;;;;;;5092073;28;20052;-60
2022/07/20 00:46:24;;;;;;;6.00;4.43;;;21.40;81.90;;;;;;5084907;28;20028;-60
2022/07/20 00:48:49;;;;;;;4.55;4.00;;;21.40;82.20;;;;;;5075762;28;20102;-61
2022/07/20 00:51:16;;;;;;;6.03;4.78;;;21.30;81.70;;;;;;5097462;28;20111;-59
2022/07/20 00:53:42;;;;;;;5.00;4.40;;;21.30;81.80;;;;;;5088448;28;20028;-59
2022/07/20 00:56:08;;;;;;;4.88;4.32;;;21.30;82.30;;;;;;5093694;28;20473;-60
2022/07/20 00:58:34;;;;;;;5.68;4.18;;;21.30;82.70;;;;;;5077150;28;20029;-60
2022/07/20 01:01:00;;;;;;;6.18;4.45;;;21.30;82.60;;;;;;5063144;28;20032;-61
2022/07/20 01:03:25;;;;;;;6.68;4.60;;;21.30;81.80;;;;;;5090666;28;20497;-60
2022/07/20 01:05:51;;;;;;;5.57;4.50;;;21.30;82.40;;;;;;5083257;28;20085;-60
2022/07/20 01:08:16;;;;;;;5.30;4.80;;;21.30;82.40;;;;;;5092809;28;20060;-60
2022/07/20 01:10:42;;;;;;;6.55;4.35;;;21.30;82.30;;;;;;5099711;28;20073;-59
2022/07/20 01:13:08;;;;;;;6.05;4.22;;;21.30;82.20;;;;;;5075019;28;20119;-60
2022/07/20 01:15:33;;;;;;;5.18;4.30;;;21.30;81.70;;;;;;5080466;28;20130;-58
2022/07/20 01:17:59;;;;;;;4.60;4.15;;;21.30;82.00;;;;;;5091960;28;20059;-59
2022/07/20 01:20:25;;;;;;;6.45;4.20;;;21.30;81.60;;;;;;5089728;28;20035;-60
2022/07/20 01:22:51;;;;;;;5.10;4.60;;;21.30;81.70;;;;;;5099845;28;20032;-59
2022/07/20 01:25:17;;;;;;;4.72;4.05;;;21.40;81.90;;;;;;5068763;28;20230;-58
2022/07/20 01:27:43;;;;;;;5.78;4.28;;;21.40;81.30;;;;;;5096064;28;20030;-59
2022/07/20 01:30:10;;;;;;;5.57;4.43;;;21.40;81.50;;;;;;5089550;28;20032;-59
2022/07/20 01:32:35;;;;;;;4.38;3.97;;;21.50;81.10;;;;;;5080283;28;20028;-60
2022/07/20 01:35:01;;;;;;;9.27;4.97;;;21.50;80.90;;;;;;5088715;28;20430;-57
2022/07/20 01:37:28;;;;;;;5.25;4.70;;;21.50;81.20;;;;;;5092715;28;20040;-59
2022/07/20 01:39:53;;;;;;;4.80;4.38;;;21.60;80.90;;;;;;5090991;28;20031;-59
2022/07/20 01:42:19;;;;;;;5.60;4.30;;;21.60;81.70;;;;;;5084853;28;20105;-59
2022/07/20 01:44:45;;;;;;;5.15;4.28;;;21.60;81.60;;;;;;5100019;28;20027;-59
2022/07/20 01:47:10;;;;;;;5.50;4.00;;;21.60;81.70;;;;;;5091120;28;20028;-60
2022/07/20 01:49:36;;;;;;;6.03;4.38;;;21.60;81.50;;;;;;5091117;28;20157;-59
2022/07/20 01:52:02;;;;;;;5.25;4.35;;;21.60;81.60;;;;;;5088568;28;20020;-57
2022/07/20 01:54:27;;;;;;;4.50;4.10;;;21.60;81.60;;;;;;5081539;28;20545;-59
2022/07/20 01:56:53;;;;;;;7.60;4.95;;;21.50;81.90;;;;;;5088075;28;20066;-59
2022/07/20 01:59:18;;;;;;;5.78;4.93;;;21.50;81.90;;;;;;5084508;28;20044;-58
2022/07/20 02:01:44;;;;;;;5.00;4.50;;;21.60;81.40;;;;;;5098918;28;20397;-60
2022/07/20 02:04:10;;;;;;;5.13;4.00;;;21.60;82.00;;;;;;5092879;28;20119;-58
2022/07/20 02:06:35;;;;;;;4.75;4.28;;;21.50;82.00;;;;;;5066286;28;20048;-59
2022/07/20 02:09:02;;;;;;;6.40;4.93;;;21.60;82.10;;;;;;5095441;28;20508;-59
2022/07/20 02:11:28;;;;;;;5.22;4.50;;;21.60;82.20;;;;;;5096077;28;20038;-60
2022/07/20 02:13:53;;;;;;;5.05;3.85;;;21.60;82.00;;;;;;5091886;28;20028;-58
2022/07/20 02:16:19;;;;;;;7.57;4.40;;;21.50;82.00;;;;;;5094847;28;20032;-58
2022/07/20 02:18:50;;;;;;;6.20;3.95;;;21.50;82.10;;;;;;5092845;28;20027;-59
2022/07/20 02:21:18;;;;;;;5.30;4.68;;;21.50;82.70;;;;;;5085791;28;20024;-60
2022/07/20 02:23:44;;;;;;;5.15;4.25;;;21.50;82.90;;;;;;5088434;28;20024;-58
2022/07/20 02:26:09;;;;;;;8.35;4.95;;;21.50;82.90;;;;;;5088437;28;20016;-58
2022/07/20 02:28:36;;;;;;;6.38;4.57;;;21.40;83.20;;;;;;5088189;28;20444;-59
2022/07/20 02:31:02;;;;;;;7.18;4.88;;;21.40;83.30;;;;;;5079689;28;20482;-58
2022/07/20 02:33:27;;;;;;;5.55;4.63;;;21.40;83.60;;;;;;5085513;28;20086;-59
2022/07/20 02:35:53;;;;;;;6.68;4.70;;;21.40;83.40;;;;;;5091743;28;20024;-61
2022/07/20 02:38:19;;;;;;;4.85;4.28;;;21.40;83.60;;;;;;5090879;28;20127;-59
2022/07/20 02:40:45;;;;;;;6.05;4.75;;;21.40;83.70;;;;;;5091714;28;20031;-58
2022/07/20 02:43:11;;;;;;;6.57;5.10;;;21.40;83.40;;;;;;5070986;28;20028;-59
2022/07/20 02:45:36;;;;;;;6.82;4.57;;;21.30;83.30;;;;;;5091543;28;20478;-57
2022/07/20 02:48:02;;;;;;;4.97;4.38;;;21.30;83.80;;;;;;5090835;28;20028;-57
2022/07/20 02:50:36;;;;;;;9.93;4.88;;;21.30;83.90;;;;;;5067295;28;20338;-60
2022/07/20 02:53:03;;;;;;;4.72;4.22;;;21.30;83.80;;;;;;5089898;28;20020;-59
2022/07/20 02:55:29;;;;;;;5.80;5.00;;;21.30;84.20;;;;;;5089925;28;20031;-59
2022/07/20 02:57:55;;;;;;;7.50;4.60;;;21.20;85.00;;;;;;5091215;28;20526;-59
2022/07/20 03:00:21;;;;;;;7.40;5.45;;;21.20;85.00;;;;;;5088369;28;20028;-60
2022/07/20 03:02:47;;;;;;;6.10;4.88;;;21.20;84.50;;;;;;5090766;28;20039;-60
2022/07/20 03:05:13;;;;;;;6.55;4.78;;;21.10;84.50;;;;;;5091772;28;20079;-60
2022/07/20 03:07:39;;;;;;;5.78;4.43;;;21.10;84.60;;;;;;5091559;28;20028;-60
2022/07/20 03:10:05;;;;;;;5.28;4.30;;;21.10;84.80;;;;;;5085545;28;20039;-60
2022/07/20 03:12:31;;;;;;;5.18;4.57;;;21.10;85.10;;;;;;5091312;28;20085;-59
2022/07/20 03:14:57;;;;;;;7.85;4.95;;;21.00;84.90;;;;;;5072123;28;20058;-60
2022/07/20 03:17:22;;;;;;;5.57;4.90;;;21.00;85.30;;;;;;5079464;28;20477;-59
2022/07/20 03:19:48;;;;;;;5.50;4.63;;;21.00;84.70;;;;;;5086784;28;20028;-59
2022/07/20 03:22:14;;;;;;;4.95;4.45;;;21.00;85.10;;;;;;5079290;28;20506;-60
2022/07/20 03:24:39;;;;;;;8.68;4.45;;;21.00;85.20;;;;;;5086583;28;20020;-61
2022/07/20 03:27:05;;;;;;;6.05;4.53;;;21.00;85.50;;;;;;5089939;28;20028;-58
2022/07/20 03:29:31;;;;;;;4.90;4.40;;;21.00;85.90;;;;;;5088342;28;20090;-56
2022/07/20 03:31:57;;;;;;;4.97;4.13;;;21.00;85.60;;;;;;5066340;28;20009;-58
2022/07/20 03:34:22;;;;;;;5.20;4.68;;;20.90;85.60;;;;;;5086814;28;20031;-58
2022/07/20 03:36:50;;;;;;;8.07;4.25;;;21.00;85.50;;;;;;5090990;28;20536;-59
2022/07/20 03:39:16;;;;;;;6.55;4.88;;;21.00;85.60;;;;;;5080916;28;20024;-58
2022/07/20 03:41:42;;;;;;;5.93;4.80;;;20.90;85.50;;;;;;5088091;28;20494;-59
2022/07/20 03:44:09;;;;;;;8.52;5.05;;;20.90;85.60;;;;;;5084354;28;20032;-58
2022/07/20 03:46:34;;;;;;;5.38;4.88;;;20.90;85.60;;;;;;5072032;28;20046;-61
2022/07/20 03:49:00;;;;;;;4.85;4.45;;;20.90;85.70;;;;;;5089437;28;20056;-59
2022/07/20 03:51:26;;;;;;;6.47;5.22;;;20.90;85.80;;;;;;5090572;28;20024;-58
2022/07/20 03:53:51;;;;;;;5.18;4.53;;;20.90;85.50;;;;;;5081639;28;20197;-57
2022/07/20 03:56:17;;;;;;;5.82;4.50;;;20.90;85.70;;;;;;5089526;28;20053;-57
2022/07/20 03:58:42;;;;;;;7.10;4.38;;;20.90;86.20;;;;;;5080565;28;20036;-59
2022/07/20 04:01:08;;;;;;;8.52;5.03;;;20.90;85.60;;;;;;5068340;28;20063;-57
2022/07/20 04:03:34;;;;;;;5.07;4.32;;;20.90;85.90;;;;;;5066567;28;20101;-59
2022/07/20 04:06:00;;;;;;;5.95;4.68;;;20.90;85.70;;;;;;5083885;28;20482;-59
2022/07/20 04:08:26;;;;;;;4.50;4.10;;;20.90;86.00;;;;;;5086398;28;20028;-59
2022/07/20 04:10:51;;;;;;;5.65;4.57;;;20.90;85.90;;;;;;5082739;28;20020;-57
2022/07/20 04:13:17;;;;;;;5.55;4.55;;;20.90;86.20;;;;;;5089599;28;20414;-58
2022/07/20 04:15:43;;;;;;;5.90;4.95;;;20.90;86.40;;;;;;5090163;28;20113;-58
2022/07/20 04:18:08;;;;;;;5.55;4.45;;;21.00;86.30;;;;;;5087306;28;20028;-59
2022/07/20 04:20:34;;;;;;;4.88;4.10;;;21.00;86.30;;;;;;5084471;28;20485;-58
2022/07/20 04:22:59;;;;;;;7.18;4.72;;;21.00;86.70;;;;;;5088753;28;20107;-58
2022/07/20 04:25:25;;;;;;;5.13;4.38;;;21.00;86.40;;;;;;5090036;28;20027;-60
2022/07/20 04:27:51;;;;;;;5.53;4.53;;;21.00;86.50;;;;;;5088760;28;20058;-59
2022/07/20 04:30:16;;;;;;;4.53;4.13;;;21.00;86.80;;;;;;5071898;28;20046;-59
2022/07/20 04:32:43;;;;;;;5.82;4.30;;;20.90;86.50;;;;;;5089606;28;20030;-57
2022/07/20 04:35:10;;;;;;;6.47;4.90;;;21.00;86.70;;;;;;5083724;28;20119;-57
2022/07/20 04:37:36;;;;;;;5.70;5.10;;;21.00;86.80;;;;;;5071392;28;20474;-59
2022/07/20 04:40:03;;;;;;;10.73;4.82;;;21.00;88.30;;;;;;5083043;28;20459;-60
2022/07/20 04:42:28;;;;;;;5.72;4.80;;;21.00;87.10;;;;;;5088795;28;20068;-60
2022/07/20 04:44:54;;;;;;;5.78;4.82;;;21.00;87.20;;;;;;5087728;28;20032;-57
2022/07/20 04:47:19;;;;;;;4.93;4.53;;;21.00;87.20;;;;;;5071400;28;20123;-58
2022/07/20 04:49:45;;;;;;;6.53;4.65;;;21.00;87.20;;;;;;5086639;28;20024;-59
2022/07/20 04:52:11;;;;;;;7.57;4.25;;;21.10;87.50;;;;;;5085190;28;20030;-60
2022/07/20 04:54:36;;;;;;;6.82;4.38;;;21.10;87.10;;;;;;5087019;28;20081;-58
2022/07/20 04:57:02;;;;;;;5.32;4.50;;;21.20;87.10;;;;;;5089182;28;20482;-59
2022/07/20 04:59:28;;;;;;;6.57;4.60;;;21.20;87.20;;;;;;5070748;28;20432;-60
2022/07/20 05:01:54;;;;;;;5.90;4.88;;;21.20;87.30;;;;;;5088637;28;20085;-62
2022/07/20 05:04:19;;;;;;;5.30;4.75;;;21.20;87.60;;;;;;5078244;28;20427;-60
2022/07/20 05:06:45;;;;;;;7.35;4.50;;;21.30;87.40;;;;;;5082801;28;20494;-60
2022/07/20 05:09:10;;;;;;;5.50;4.90;;;21.30;87.50;;;;;;5083184;28;20099;-61
2022/07/20 05:11:37;;;;;;;6.50;4.63;;;21.30;87.70;;;;;;5063155;28;20495;-60
2022/07/20 05:14:03;;;;;;;6.30;4.35;;;21.40;87.70;;;;;;5087036;28;20561;-60
2022/07/20 05:16:29;;;;;;;5.80;5.18;;;21.40;87.00;;;;;;5088827;28;20107;-60
2022/07/20 05:18:54;;;;;;;6.00;4.40;;;21.40;86.70;;;;;;5087970;28;20020;-60
2022/07/20 05:21:20;;;;;;;6.28;4.63;;;21.50;86.80;;;;;;5083005;28;20051;-61
2022/07/20 05:23:46;;;;;;;5.35;4.05;;;21.60;86.70;;;;;;5084102;28;20480;-60
2022/07/20 05:26:11;;;;;;;6.32;4.25;;;21.60;86.30;;;;;;5086814;28;20435;-60
2022/07/20 05:28:41;;;;;;;10.98;4.90;;;21.70;85.80;;;;;;5088625;28;20028;-59
2022/07/20 05:31:07;;;;;;;6.63;4.88;;;21.70;86.10;;;;;;5077227;28;20467;-59
2022/07/20 05:33:32;;;;;;;6.00;4.45;;;21.80;86.00;;;;;;5088476;28;20052;-60
2022/07/20 05:36:00;;;;;;;5.70;4.65;;;21.90;86.40;;;;;;5088865;28;20035;-62
2022/07/20 05:38:26;;;;;;;5.80;4.50;;;21.90;87.60;;;;;;5088814;28;20505;-61
2022/07/20 05:40:51;;;;;;;6.72;4.10;;;22.00;86.60;;;;;;5088976;28;20047;-61
2022/07/20 05:43:17;;;;;;;5.57;4.32;;;22.10;86.50;;;;;;5088580;28;20399;-61
2022/07/20 05:45:43;;;;;;;5.47;4.32;;;22.10;86.50;;;;;;5088640;28;20524;-60
2022/07/20 05:48:11;;;;;;;8.65;4.65;;;22.20;86.20;;;;;;5088646;28;20039;-61
2022/07/20 05:50:37;;;;;;;6.10;4.80;;;22.30;86.10;;;;;;5088633;28;20024;-59
2022/07/20 05:53:04;;;;;;;7.68;4.57;;;22.40;85.20;;;;;;5088195;28;20024;-58
2022/07/20 05:55:30;;;;;;;7.45;4.63;;;22.60;84.30;;;;;;5088442;28;20062;-61
2022/07/20 05:57:55;;;;;;;9.93;4.93;;;22.80;82.90;;;;;;5070420;28;20099;-60
2022/07/20 06:00:21;;;;;;;6.55;4.78;;;22.90;82.40;;;;;;5088677;28;20028;-61
2022/07/20 06:02:46;;;;;;;6.78;4.43;;;23.10;83.20;;;;;;5070163;28;20538;-62
2022/07/20 06:05:12;;;;;;;5.82;4.38;;;23.20;81.50;;;;;;5088454;28;20032;-62
2022/07/20 06:07:38;;;;;;;6.20;4.32;;;23.20;81.30;;;;;;5091339;28;20028;-61
2022/07/20 06:10:04;;;;;;;6.28;4.20;;;23.30;81.20;;;;;;5090847;28;20099;-61
2022/07/20 06:12:29;;;;;;;6.68;4.55;;;23.40;81.60;;;;;;5092523;28;20411;-62
2022/07/20 06:14:55;;;;;;;4.63;4.22;;;23.50;80.30;;;;;;5092184;28;20031;-62
2022/07/20 06:17:20;;;;;;;5.20;4.70;;;23.50;80.70;;;;;;5093058;28;20020;-62
2022/07/20 06:19:46;;;;;;;4.82;4.43;;;23.60;82.00;;;;;;5089099;28;20067;-61
2022/07/20 06:22:11;;;;;;;5.95;3.78;;;23.80;80.50;;;;;;5092292;28;20020;-62
2022/07/20 06:24:37;;;;;;;4.95;4.20;;;23.90;81.40;;;;;;5090149;28;20073;-62
2022/07/20 06:27:03;;;;;;;5.47;4.65;;;24.10;79.50;;;;;;5090242;28;20062;-60
2022/07/20 06:29:28;;;;;;;5.97;4.25;;;24.20;79.10;;;;;;5086710;28;20024;-61
2022/07/20 06:31:54;;;;;;;4.93;4.40;;;24.40;79.70;;;;;;5091294;28;20093;-61
2022/07/20 06:34:19;;;;;;;4.60;4.20;;;24.50;80.10;;;;;;5074126;28;20111;-62
2022/07/20 06:36:46;;;;;;;5.15;4.38;;;24.70;78.20;;;;;;5091675;28;20024;-63
2022/07/20 06:39:12;;;;;;;4.30;3.90;;;24.80;78.90;;;;;;5092057;28;20055;-61
2022/07/20 06:41:38;;;;;;;5.22;4.50;;;25.00;78.80;;;;;;5067316;28;20119;-61
2022/07/20 06:44:03;;;;;;;4.63;4.18;;;25.10;78.00;;;;;;5086102;28;20542;-62
2022/07/20 06:46:29;;;;;;;9.15;4.03;;;25.20;78.60;;;;;;5092151;28;20024;-62
2022/07/20 06:48:54;;;;;;;5.00;4.40;;;25.40;77.80;;;;;;5091407;28;20030;-61
2022/07/20 06:51:20;;;;;;;8.10;4.10;;;25.50;77.40;;;;;;5091780;28;20034;-61
2022/07/20 06:53:46;;;;;;;4.78;4.22;;;25.70;77.30;;;;;;5091785;28;20036;-61
2022/07/20 06:56:11;;;;;;;8.32;4.53;;;25.80;77.20;;;;;;5091917;28;20035;-62
2022/07/20 06:58:37;;;;;;;8.75;4.47;;;26.00;76.30;;;;;;5091919;28;20053;-64
2022/07/20 07:01:03;;;;;;;6.85;4.30;;;26.10;75.50;;;;;;5089086;22;20163;-63
2022/07/20 07:03:28;;;;;;;5.95;4.45;;;26.30;75.30;;;;;;5070360;28;20051;-65
2022/07/20 07:05:54;;;;;;;4.40;4.00;;;26.40;76.00;;;;;;5070747;28;20099;-64
2022/07/20 07:08:19;;;;;;;6.50;4.22;;;26.60;76.50;;;;;;5071309;28;20154;-64
2022/07/20 07:10:45;;;;;;;12.35;6.40;;;26.80;77.20;;;;;;5080576;28;20028;-66
2022/07/20 07:13:11;;;;;;;7.10;4.28;;;26.90;75.90;;;;;;5065964;28;20502;-64
2022/07/20 07:15:36;;;;;;;7.78;4.45;;;27.00;74.40;;;;;;5070998;28;20114;-64
2022/07/20 07:18:02;;;;;;;7.22;4.55;;;27.20;75.00;;;;;;5045194;28;20163;-64
2022/07/20 07:20:28;;;;;;;5.90;4.03;;;27.40;72.50;;;;;;5066185;28;20021;-64
2022/07/20 07:22:54;;;;;;;7.60;5.13;;;27.50;73.20;;;;;;5069157;28;20375;-64
2022/07/20 07:25:19;;;;;;;4.35;3.85;;;27.70;74.20;;;;;;5070997;28;20029;-64
2022/07/20 07:27:45;;;;;;;6.35;4.20;;;27.80;75.60;;;;;;5069800;28;20086;-64
2022/07/20 07:30:11;;;;;;;5.15;4.65;;;28.00;74.70;;;;;;5051956;28;20111;-64
2022/07/20 07:32:36;;;;;;;5.53;4.32;;;28.10;73.70;;;;;;5071217;28;20547;-64
2022/07/20 07:35:03;;;;;;;5.55;3.90;;;28.30;71.30;;;;;;5067774;28;20044;-65
2022/07/20 07:37:28;;;;;;;7.03;4.43;;;28.50;71.20;;;;;;5071454;28;20103;-66
2022/07/20 07:39:54;;;;;;;12.20;4.57;;;28.60;70.60;;;;;;5065397;28;20025;-64
2022/07/20 07:42:21;;;;;;;9.80;4.78;;;28.70;69.60;;;;;;5068787;28;20105;-64
2022/07/20 07:44:47;;;;;;;5.68;4.25;;;28.80;69.00;;;;;;5070997;28;20029;-64
2022/07/20 07:47:13;;;;;;;4.53;3.80;;;29.00;69.30;;;;;;5048406;28;20479;-64
2022/07/20 07:49:38;;;;;;;7.18;4.15;;;29.20;69.70;;;;;;5070869;28;20020;-63
2022/07/20 07:52:04;;;;;;;9.43;4.32;;;29.40;68.80;;;;;;5066398;28;20102;-64
2022/07/20 07:54:29;;;;;;;4.43;4.07;;;29.60;68.20;;;;;;5070905;28;20054;-65
2022/07/20 07:56:55;;;;;;;7.07;3.40;;;29.70;67.90;;;;;;5065423;28;20107;-64
2022/07/20 07:59:21;;;;;;;4.85;4.28;;;29.90;69.90;;;;;;5070621;28;20035;-64
2022/07/20 08:01:46;;;;;;;4.20;3.80;;;30.10;67.50;;;;;;5064258;28;20083;-65
2022/07/20 08:04:12;;;;;;;4.53;3.72;;;30.30;67.80;;;;;;5069705;28;20064;-65
2022/07/20 08:06:38;;;;;;;5.00;3.90;;;30.50;66.20;;;;;;5070484;28;20099;-65
2022/07/20 08:09:04;;;;;;;5.50;3.45;;;30.70;66.20;;;;;;5044175;28;20066;-65
2022/07/20 08:11:30;;;;;;;4.95;3.70;;;30.90;65.70;;;;;;5067171;28;20042;-65
2022/07/20 08:13:55;;;;;;;6.40;3.90;;;31.10;64.50;;;;;;5064831;28;20052;-65
2022/07/20 08:16:21;;;;;;;4.88;3.53;;;31.30;65.80;;;;;;5068562;28;20021;-65
2022/07/20 08:18:47;;;;;;;4.10;3.70;;;31.40;63.70;;;;;;5064665;28;20100;-66
2022/07/20 08:21:12;;;;;;;3.90;3.53;;;31.60;64.10;;;;;;5045790;28;20016;-66
2022/07/20 08:23:38;;;;;;;6.47;3.70;;;31.80;64.30;;;;;;5070064;28;20483;-65
2022/07/20 08:26:03;;;;;;;6.03;4.13;;;32.00;63.40;;;;;;5064083;28;20394;-65
2022/07/20 08:28:29;;;;;;;4.13;3.55;;;32.20;62.30;;;;;;5043757;28;20085;-65
2022/07/20 08:30:54;;;;;;;4.82;3.67;;;32.30;62.00;;;;;;5060409;28;20118;-64
2022/07/20 08:33:21;;;;;;;6.05;3.67;;;32.50;61.70;;;;;;5065588;28;20024;-65
2022/07/20 08:35:46;;;;;;;6.20;3.80;;;32.70;63.30;;;;;;5067841;28;20013;-65
2022/07/20 08:38:12;;;;;;;4.97;3.72;;;32.90;62.70;;;;;;5066436;28;20532;-65
2022/07/20 08:40:38;;;;;;;5.80;3.58;;;33.10;62.30;;;;;;5065647;28;20033;-65
2022/07/20 08:43:05;;;;;;;5.95;3.95;;;33.30;59.90;;;;;;5067024;28;20021;-63
2022/07/20 08:45:31;;;;;;;3.80;3.38;;;33.40;61.00;;;;;;5040173;28;20024;-65
2022/07/20 08:48:00;;;;;;;5.07;3.83;;;33.60;62.40;;;;;;5069869;28;20100;-66
2022/07/20 08:50:29;;;;;;;5.55;3.55;;;33.70;59.30;;;;;;5065498;28;20094;-65
2022/07/20 08:52:56;;;;;;;4.55;3.92;;;33.90;61.50;;;;;;5069116;28;20020;-69
2022/07/20 08:55:23;;;;;;;4.32;3.95;;;34.00;59.90;;;;;;5043337;28;20101;-65
2022/07/20 08:57:49;;;;;;;7.10;3.38;;;34.10;58.50;;;;;;5068582;28;20090;-66
2022/07/20 09:00:15;;;;;;;6.50;3.50;;;34.30;60.20;;;;;;5057773;28;20511;-66
2022/07/20 09:02:57;;;;;;;3.45;3.25;;;34.40;58.20;;;;;;5067106;28;20021;-66
2022/07/20 09:05:25;;;;;;;4.78;3.97;;;34.50;58.70;;;;;;5061026;28;20021;-66
2022/07/20 09:07:53;;;;;;;4.07;3.33;;;34.60;58.80;;;;;;5069005;28;20056;-67
2022/07/20 09:10:26;;;;;;;4.97;3.53;;;34.80;59.30;;;;;;5067795;28;20020;-66
2022/07/20 09:12:54;;;;;;;4.47;3.70;;;35.00;57.40;;;;;;5068689;28;20105;-65
2022/07/20 09:15:28;;;;;;;3.88;3.58;;;35.10;57.10;;;;;;5066753;28;20025;-66
2022/07/20 09:18:01;;;;;;;8.32;4.00;;;35.10;56.50;;;;;;5065096;28;20035;-66
2022/07/20 09:20:29;;;;;;;4.63;3.60;;;35.30;58.40;;;;;;5064331;28;20045;-65
2022/07/20 09:23:04;;;;;;;4.50;3.50;;;35.30;57.40;;;;;;5061521;28;20017;-65
2022/07/20 09:25:30;;;;;;;5.03;3.65;;;35.50;57.00;;;;;;5065241;28;20728;-66
2022/07/20 09:27:56;;;;;;;3.92;3.53;;;35.50;55.90;;;;;;5067297;28;20562;-66
2022/07/20 09:30:22;;;;;;;5.43;3.83;;;35.60;55.70;;;;;;5068881;28;20103;-66
2022/07/20 09:33:01;;;;;;;3.85;3.45;;;35.80;56.60;;;;;;5068112;28;20070;-66
2022/07/20 09:35:32;;;;;;;5.78;3.53;;;35.80;56.80;;;;;;5065138;28;20017;-66
2022/07/20 09:38:01;;;;;;;5.80;3.80;;;35.90;56.80;;;;;;5060293;28;20036;-66
2022/07/20 09:40:26;;;;;;;4.13;3.83;;;36.00;55.60;;;;;;5064643;28;20089;-63
2022/07/20 09:42:52;;;;;;;5.15;4.00;;;36.00;55.70;;;;;;5067522;28;20036;-64
2022/07/20 09:45:27;;;;;;;5.32;3.85;;;36.00;53.80;;;;;;5062061;28;20036;-64
2022/07/20 09:48:04;;;;;;;4.40;3.58;;;36.00;55.70;;;;;;5065123;28;20238;-64
2022/07/20 09:50:32;;;;;;;5.72;3.88;;;36.10;55.50;;;;;;5061823;28;20032;-64
2022/07/20 09:52:58;;;;;;;3.92;3.47;;;36.10;55.40;;;;;;5063889;28;20016;-64
2022/07/20 09:55:25;;;;;;;4.50;3.80;;;36.10;54.90;;;;;;5066620;28;20086;-64
2022/07/20 09:57:51;;;;;;;5.32;4.35;;;36.20;55.80;;;;;;5046433;28;20033;-64
2022/07/20 10:00:18;;;;;;;5.22;4.57;;;36.20;54.60;;;;;;5066185;28;20198;-66
2022/07/20 10:02:48;;;;;;;5.40;3.78;;;36.20;55.80;;;;;;5063764;28;20042;-64
2022/07/20 10:05:16;;;;;;;4.93;4.07;;;36.30;55.50;;;;;;5049567;28;20500;-67
2022/07/20 10:07:43;;;;;;;5.05;3.75;;;36.30;53.80;;;;;;5068552;28;20056;-63
2022/07/20 10:10:09;;;;;;;6.05;3.92;;;36.30;56.80;;;;;;5066480;28;20024;-64
2022/07/20 10:12:35;;;;;;;5.60;4.03;;;36.20;54.60;;;;;;5068266;28;20020;-64
2022/07/20 10:15:02;;;;;;;5.43;3.92;;;36.20;54.70;;;;;;5059961;28;20506;-65
2022/07/20 10:17:32;;;;;;;4.28;3.97;;;36.20;54.60;;;;;;5050173;28;20025;-64
2022/07/20 10:19:57;;;;;;;4.78;4.20;;;36.10;54.60;;;;;;5062452;28;20104;-65
2022/07/20 10:22:23;;;;;;;6.95;3.67;;;36.00;54.00;;;;;;5067683;28;20100;-65
2022/07/20 10:25:19;;;;;;;4.40;3.70;;;36.00;54.80;;;;;;5067799;28;20529;-65
2022/07/20 10:27:45;;;;;;;5.18;4.28;;;36.10;55.50;;;;;;5066164;28;20029;-65
2022/07/20 10:30:18;;;;;;;3.65;3.33;;;36.10;54.80;;;;;;5042570;28;20095;-64
2022/07/20 10:32:58;;;;;;;6.82;3.78;;;36.10;54.60;;;;;;5068409;28;20115;-64
2022/07/20 10:35:29;;;;;;;4.25;3.33;;;36.10;54.80;;;;;;5065761;28;20025;-64
2022/07/20 10:37:56;;;;;;;7.13;4.45;;;36.20;54.50;;;;;;5050309;28;20028;-65
2022/07/20 10:40:24;;;;;;;4.30;3.90;;;36.10;54.40;;;;;;5040854;28;20047;-65
2022/07/20 10:42:51;;;;;;;8.80;4.10;;;36.10;54.50;;;;;;5049643;28;20375;-65
2022/07/20 10:45:16;;;;;;;16.90;4.30;;;36.20;55.40;;;;;;5062552;28;20063;-65
2022/07/20 10:47:49;;;;;;;6.07;4.45;;;36.20;54.80;;;;;;5049666;28;20066;-65
2022/07/20 10:50:17;;;;;;;4.53;4.13;;;36.20;53.40;;;;;;5063315;28;20075;-64
2022/07/20 10:52:45;;;;;;;3.83;3.50;;;36.20;55.10;;;;;;5062178;28;20021;-64
2022/07/20 10:55:36;;;;;;;4.18;3.75;;;36.20;53.90;;;;;;5071605;28;20028;-64
2022/07/20 10:58:14;;;;;;;6.00;4.13;;;36.10;54.20;;;;;;5067358;28;20024;-64
2022/07/20 11:00:41;;;;;;;7.00;4.13;;;36.20;53.80;;;;;;5071081;28;20032;-64
2022/07/20 11:03:18;;;;;;;4.72;3.60;;;36.20;52.60;;;;;;5068210;28;20064;-65
2022/07/20 11:05:46;;;;;;;4.60;3.70;;;36.20;54.50;;;;;;5064122;28;20462;-64
2022/07/20 11:08:13;;;;;;;4.43;4.13;;;36.20;53.70;;;;;;5071679;28;20012;-64
2022/07/20 11:10:40;;;;;;;4.95;3.95;;;36.20;53.20;;;;;;5062722;28;20606;-64
2022/07/20 11:13:09;;;;;;;5.60;4.15;;;36.20;54.30;;;;;;5066309;28;20530;-64
2022/07/20 11:15:43;;;;;;;4.68;4.22;;;36.20;53.40;;;;;;5051001;28;20025;-65
2022/07/20 11:18:11;;;;;;;4.30;3.92;;;36.20;53.90;;;;;;5065847;28;20146;-65
2022/07/20 11:20:46;;;;;;;5.20;4.15;;;36.20;54.30;;;;;;5067885;28;20082;-65
2022/07/20 11:23:13;;;;;;;;;;;36.30;53.70;;;;;;5045998;28;20016;-64
2022/07/20 11:25:46;;;;;;;3.97;3.65;;;36.30;53.30;;;;;;5043001;28;20049;-65
2022/07/20 11:28:12;;;;;;;4.32;3.80;;;36.30;53.30;;;;;;5070789;28;20020;-64
2022/07/20 11:30:38;;;;;;;5.10;4.10;;;36.30;52.90;;;;;;5052727;28;20166;-65
2022/07/20 11:33:04;;;;;;;6.50;4.25;;;36.40;53.30;;;;;;5068726;28;20129;-64
2022/07/20 11:35:29;;;;;;;6.13;3.53;;;36.40;52.50;;;;;;5045675;28;20031;-65
2022/07/20 11:37:55;;;;;;;4.63;3.60;;;36.50;52.40;;;;;;5070325;28;20031;-65
2022/07/20 11:40:22;;;;;;;5.22;3.58;;;36.50;53.40;;;;;;5045707;28;20372;-65
2022/07/20 11:43:06;;;;;;;4.22;3.72;;;36.60;51.30;;;;;;5043841;28;20022;-64
2022/07/20 11:45:32;;;;;;;5.25;3.92;;;36.60;53.60;;;;;;5064292;28;20147;-64
2022/07/20 11:47:57;;;;;;;5.70;4.10;;;36.60;53.20;;;;;;5062857;28;20103;-65
2022/07/20 11:50:32;;;;;;;4.22;3.28;;;36.70;53.10;;;;;;5070441;28;20021;-65
2022/07/20 11:52:57;;;;;;;7.25;3.55;;;36.70;51.70;;;;;;5070615;28;20066;-65
2022/07/20 11:55:34;;;;;;;5.63;3.15;;;36.80;52.50;;;;;;5070636;28;20063;-65
2022/07/20 11:58:00;;;;;;;3.53;3.22;;;36.80;51.30;;;;;;5065879;28;20024;-65
2022/07/20 12:00:27;;;;;;;3.63;3.33;;;36.80;49.70;;;;;;5070105;28;20482;-65
2022/07/20 12:02:53;;;;;;;3.80;3.33;;;36.90;50.30;;;;;;5043774;28;20498;-65
2022/07/20 12:05:18;;;;;;;3.72;3.42;;;37.00;50.20;;;;;;5069339;28;20075;-65
2022/07/20 12:10:28;;;;;;;7.22;3.60;;;37.00;50.60;;;;;;5063921;28;20518;-66
2022/07/20 12:13:05;;;;;;;3.40;3.10;;;37.10;50.40;;;;;;5065369;28;20091;-65
2022/07/20 12:15:31;;;;;;;5.45;3.95;;;37.10;49.20;;;;;;5045541;28;20406;-65
2022/07/20 12:17:56;;;;;;;4.43;3.60;;;37.20;49.60;;;;;;5062131;28;20020;-66
2022/07/20 12:20:23;;;;;;;4.40;3.42;;;37.20;48.80;;;;;;5068794;28;20032;-65
2022/07/20 12:22:55;;;;;;;5.70;3.22;;;37.20;49.80;;;;;;5069068;28;20085;-65
2022/07/20 12:25:22;;;;;;;12.43;3.53;;;37.30;48.50;;;;;;5068745;28;20183;-65
2022/07/20 12:27:48;;;;;;;4.57;3.00;;;37.30;48.00;;;;;;5068514;28;20028;-64
2022/07/20 12:30:29;;;;;;;4.03;3.30;;;37.30;48.80;;;;;;5068577;28;20034;-67
2022/07/20 12:33:21;;;;;;;5.75;3.72;;;37.50;48.10;;;;;;5050544;28;20032;-64
2022/07/20 12:35:50;;;;;;;7.00;3.45;;;37.50;48.80;;;;;;5058613;28;20041;-67
2022/07/20 12:38:17;;;;;;;9.13;3.55;;;37.60;49.30;;;;;;5068882;28;20020;-65
2022/07/20 12:40:44;;;;;;;4.75;3.67;;;37.70;47.70;;;;;;5068562;28;20120;-65
2022/07/20 12:43:35;;;;;;;5.35;3.45;;;37.80;49.30;;;;;;5066195;28;20517;-64
2022/07/20 12:46:08;;;;;;;3.33;2.85;;;37.90;48.30;;;;;;5064891;28;20036;-64
2022/07/20 12:48:37;;;;;;;5.30;3.17;;;37.90;49.30;;;;;;5069562;28;20376;-64
2022/07/20 12:51:03;;;;;;;4.70;3.75;;;38.20;49.20;;;;;;5064010;28;20020;-69
2022/07/20 12:53:28;;;;;;;4.97;3.70;;;38.30;48.10;;;;;;5045841;28;20047;-65